Time;durP1;ratioP1;P1;durP2;ratioP2;P2;SDS_P1;SDS_P2;PMS_P1;PMS_P2;Temp;Humidity;BMP_temperature;BMP_pressure;BME280_temperature;BME280_humidity;BME280_pressure;Samples;Min_cycle;Max_cycle;Signal;HPM_P1;HPM_P2
2023/05/31 00:00:32;;;;;;;6.22;1.80;;;;;;;;;;5081562;28;20200;-68
2023/05/31 00:02:58;;;;;;;3.97;1.58;;;;;;;;;;5081401;28;20215;-68
2023/05/31 00:05:25;;;;;;;4.68;1.90;;;;;;;;;;5081377;28;20204;-68
2023/05/31 00:07:51;;;;;;;1.95;1.65;;;;;;;;;;5083990;28;20223;-68
2023/05/31 00:10:18;;;;;;;3.85;1.42;;;;;;;;;;5085116;28;20200;-68
2023/05/31 00:12:45;;;;;;;2.10;1.70;;;;;;;;;;5085234;28;20404;-68
2023/05/31 00:15:11;;;;;;;3.67;1.58;;;;;;;;;;5085044;28;20196;-68
2023/05/31 00:17:37;;;;;;;2.47;1.52;;;;;;;;;;5084824;28;20204;-68
2023/05/31 00:20:04;;;;;;;2.30;1.60;;;;;;;;;;5084847;28;20204;-68
2023/05/31 00:22:30;;;;;;;4.82;1.60;;;;;;;;;;5084953;28;20216;-68
2023/05/31 00:24:56;;;;;;;2.75;1.77;;;;;;;;;;5084638;28;20245;-68
2023/05/31 00:27:24;;;;;;;2.63;1.85;;;;;;;;;;5084889;28;20220;-68
2023/05/31 00:29:50;;;;;;;3.92;2.03;;;;;;;;;;5084908;28;20201;-68
2023/05/31 00:32:16;;;;;;;4.82;1.90;;;;;;;;;;5084715;28;20200;-68
2023/05/31 00:34:43;;;;;;;3.58;1.70;;;;;;;;;;5084641;28;20205;-68
2023/05/31 00:37:09;;;;;;;3.17;1.50;;;;;;;;;;5084625;28;20197;-68
2023/05/31 00:39:35;;;;;;;1.80;1.70;;;;;;;;;;5084462;28;20235;-68
2023/05/31 00:42:02;;;;;;;7.38;1.60;;;;;;;;;;5085093;28;20204;-68
2023/05/31 00:44:29;;;;;;;4.22;1.77;;;;;;;;;;5084339;28;20211;-68
2023/05/31 00:46:56;;;;;;;7.13;1.90;;;;;;;;;;5084347;28;20207;-68
2023/05/31 00:49:22;;;;;;;1.80;1.70;;;;;;;;;;5084497;28;20193;-69
2023/05/31 00:51:48;;;;;;;3.40;1.80;;;;;;;;;;5084401;28;20250;-69
2023/05/31 00:54:15;;;;;;;5.18;2.13;;;;;;;;;;5084116;28;20197;-69
2023/05/31 00:56:41;;;;;;;2.78;1.45;;;;;;;;;;5084443;28;20200;-69
2023/05/31 00:59:07;;;;;;;4.53;1.80;;;;;;;;;;5084289;28;20392;-69
2023/05/31 01:01:35;;;;;;;1.83;1.73;;;;;;;;;;5084354;28;20434;-69
2023/05/31 01:04:02;;;;;;;3.20;1.70;;;;;;;;;;5083988;28;20246;-69
2023/05/31 01:06:31;;;;;;;4.15;1.70;;;;;;;;;;5083967;28;20218;-69
2023/05/31 01:08:58;;;;;;;3.03;1.80;;;;;;;;;;5084281;28;20196;-68
2023/05/31 01:11:28;;;;;;;2.97;1.50;;;;;;;;;;5083993;28;20219;-69
2023/05/31 01:13:59;;;;;;;2.17;1.88;;;;;;;;;;5083843;28;20200;-68
2023/05/31 01:16:28;;;;;;;1.77;1.60;;;;;;;;;;5083973;28;20231;-68
2023/05/31 01:19:02;;;;;;;3.78;1.52;;;;;;;;;;5083321;28;20216;-69
2023/05/31 01:21:34;;;;;;;4.43;1.60;;;;;;;;;;5083913;28;20212;-69
2023/05/31 01:24:05;;;;;;;2.05;1.50;;;;;;;;;;5083737;28;20224;-69
2023/05/31 01:26:36;;;;;;;4.07;1.92;;;;;;;;;;5084008;28;20200;-69
2023/05/31 01:29:05;;;;;;;3.67;1.50;;;;;;;;;;5083879;28;20222;-69
2023/05/31 01:31:32;;;;;;;4.97;1.90;;;;;;;;;;5083061;28;20200;-69
2023/05/31 01:33:59;;;;;;;2.97;1.80;;;;;;;;;;5083425;28;20219;-69
2023/05/31 01:36:25;;;;;;;2.08;1.55;;;;;;;;;;5083805;28;20227;-69
2023/05/31 01:38:51;;;;;;;2.10;1.90;;;;;;;;;;5083231;28;20227;-69
2023/05/31 01:41:18;;;;;;;3.05;2.03;;;;;;;;;;5083364;28;20208;-69
2023/05/31 01:43:47;;;;;;;4.63;1.90;;;;;;;;;;5083485;28;20200;-69
2023/05/31 01:46:14;;;;;;;3.17;1.92;;;;;;;;;;5083273;28;20196;-69
2023/05/31 01:48:41;;;;;;;2.83;2.10;;;;;;;;;;5083388;28;20200;-69
2023/05/31 01:51:08;;;;;;;2.22;2.05;;;;;;;;;;5083077;28;20208;-69
2023/05/31 01:53:35;;;;;;;3.55;1.50;;;;;;;;;;5083048;28;20204;-69
2023/05/31 01:56:02;;;;;;;4.75;1.92;;;;;;;;;;5082955;28;20215;-69
2023/05/31 01:58:29;;;;;;;3.22;1.73;;;;;;;;;;5083282;28;20223;-69
2023/05/31 02:00:56;;;;;;;1.85;1.75;;;;;;;;;;5083217;28;20207;-69
2023/05/31 02:03:23;;;;;;;2.55;2.25;;;;;;;;;;5083061;28;20196;-69
2023/05/31 02:05:56;;;;;;;3.53;1.83;;;;;;;;;;5082745;28;20200;-69
2023/05/31 02:08:23;;;;;;;2.35;1.55;;;;;;;;;;5075532;28;20246;-69
2023/05/31 02:10:49;;;;;;;2.30;1.77;;;;;;;;;;5082990;28;20430;-69
2023/05/31 02:13:15;;;;;;;2.50;1.70;;;;;;;;;;5074914;28;20196;-69
2023/05/31 02:15:42;;;;;;;1.92;1.58;;;;;;;;;;5082762;28;20201;-69
2023/05/31 02:18:09;;;;;;;4.50;1.83;;;;;;;;;;5082789;28;20488;-69
2023/05/31 02:20:36;;;;;;;1.60;1.50;;;;;;;;;;5082697;28;20226;-69
2023/05/31 02:23:02;;;;;;;2.25;2.15;;;;;;;;;;5082360;28;20200;-69
2023/05/31 02:25:28;;;;;;;1.63;1.52;;;;;;;;;;5082597;28;20204;-69
2023/05/31 02:27:54;;;;;;;2.33;1.70;;;;;;;;;;5082585;28;20220;-68
2023/05/31 02:30:21;;;;;;;2.33;1.70;;;;;;;;;;5081637;28;20203;-69
2023/05/31 02:32:47;;;;;;;2.97;1.80;;;;;;;;;;5082338;28;20200;-69
2023/05/31 02:35:14;;;;;;;4.28;1.83;;;;;;;;;;5082161;28;20531;-69
2023/05/31 02:37:41;;;;;;;2.17;1.95;;;;;;;;;;5082340;28;20393;-69
2023/05/31 02:40:08;;;;;;;4.57;1.85;;;;;;;;;;5082334;28;20224;-69
2023/05/31 02:42:35;;;;;;;2.35;1.65;;;;;;;;;;5082487;28;20388;-69
2023/05/31 02:45:02;;;;;;;5.40;1.45;;;;;;;;;;5082216;28;20392;-69
2023/05/31 02:47:28;;;;;;;4.03;1.80;;;;;;;;;;5082351;28;20266;-69
2023/05/31 02:49:55;;;;;;;2.08;1.58;;;;;;;;;;5082056;28;20503;-69
2023/05/31 02:52:23;;;;;;;2.85;1.70;;;;;;;;;;5082065;28;20234;-69
2023/05/31 02:54:49;;;;;;;2.08;1.90;;;;;;;;;;5082245;28;20200;-69
2023/05/31 02:57:16;;;;;;;3.13;1.92;;;;;;;;;;5082135;28;20196;-69
2023/05/31 02:59:43;;;;;;;6.13;1.80;;;;;;;;;;5081992;28;20273;-69
2023/05/31 03:02:10;;;;;;;2.70;1.85;;;;;;;;;;5081917;28;20204;-69
2023/05/31 03:04:36;;;;;;;4.05;1.75;;;;;;;;;;5081695;28;20205;-69
2023/05/31 03:07:02;;;;;;;2.10;1.88;;;;;;;;;;5081705;28;20287;-69
2023/05/31 03:09:30;;;;;;;2.00;1.90;;;;;;;;;;5082174;28;20441;-69
2023/05/31 03:11:56;;;;;;;3.30;1.67;;;;;;;;;;5081861;28;20526;-69
2023/05/31 03:14:22;;;;;;;1.73;1.63;;;;;;;;;;5081776;28;20286;-69
2023/05/31 03:16:50;;;;;;;2.35;1.92;;;;;;;;;;5082021;28;20403;-69
2023/05/31 03:19:16;;;;;;;2.92;1.90;;;;;;;;;;5081534;28;20243;-69
2023/05/31 03:21:42;;;;;;;5.03;3.92;;;;;;;;;;5082028;28;20222;-67
2023/05/31 03:24:08;;;;;;;6.40;4.47;;;;;;;;;;5081848;28;20313;-67
2023/05/31 03:26:36;;;;;;;5.13;3.33;;;;;;;;;;5082071;28;20254;-67
2023/05/31 03:29:03;;;;;;;6.13;4.63;;;;;;;;;;5081763;28;20216;-67
2023/05/31 03:31:29;;;;;;;2.33;2.13;;;;;;;;;;5081789;28;20208;-67
2023/05/31 03:33:56;;;;;;;3.80;2.78;;;;;;;;;;5081472;28;20200;-67
2023/05/31 03:36:22;;;;;;;3.53;2.50;;;;;;;;;;5081914;28;20196;-68
2023/05/31 03:38:48;;;;;;;2.60;2.40;;;;;;;;;;5082267;28;20208;-68
2023/05/31 03:41:15;;;;;;;3.50;2.50;;;;;;;;;;5083584;28;20209;-68
2023/05/31 03:43:42;;;;;;;2.33;2.13;;;;;;;;;;5085907;28;20208;-68
2023/05/31 03:46:09;;;;;;;3.88;2.10;;;;;;;;;;5085760;28;20204;-68
2023/05/31 03:48:35;;;;;;;3.70;2.20;;;;;;;;;;5085565;28;20208;-69
2023/05/31 03:51:01;;;;;;;5.47;2.17;;;;;;;;;;5085398;28;20196;-68
2023/05/31 03:53:27;;;;;;;3.95;2.33;;;;;;;;;;5085716;28;20403;-69
2023/05/31 03:55:54;;;;;;;3.63;2.33;;;;;;;;;;5085827;28;20207;-68
2023/05/31 03:58:20;;;;;;;3.78;2.47;;;;;;;;;;5085403;28;20266;-69
2023/05/31 04:00:48;;;;;;;2.95;2.13;;;;;;;;;;5085161;28;20433;-68
2023/05/31 04:03:14;;;;;;;3.55;2.40;;;;;;;;;;5085525;28;20208;-68
2023/05/31 04:05:40;;;;;;;2.60;2.45;;;;;;;;;;5085045;28;20212;-69
2023/05/31 04:08:07;;;;;;;3.17;2.08;;;;;;;;;;5084943;28;20208;-68
2023/05/31 04:10:33;;;;;;;2.90;1.92;;;;;;;;;;5085194;28;20488;-68
2023/05/31 04:13:00;;;;;;;2.47;2.08;;;;;;;;;;5085053;28;20200;-68
2023/05/31 04:15:26;;;;;;;4.32;2.25;;;;;;;;;;5084630;28;20446;-68
2023/05/31 04:17:55;;;;;;;3.03;2.30;;;;;;;;;;5085056;28;20204;-68
2023/05/31 04:20:21;;;;;;;2.17;2.08;;;;;;;;;;5084761;28;20266;-68
2023/05/31 04:22:47;;;;;;;5.93;1.90;;;;;;;;;;5084839;28;20201;-68
2023/05/31 04:25:17;;;;;;;2.20;2.10;;;;;;;;;;5084549;28;20231;-68
2023/05/31 04:27:43;;;;;;;2.35;2.00;;;;;;;;;;5084751;28;20248;-68
2023/05/31 04:30:10;;;;;;;6.40;2.45;;;;;;;;;;5084496;28;20509;-68
2023/05/31 04:32:36;;;;;;;2.17;2.03;;;;;;;;;;5084994;28;20387;-68
2023/05/31 04:35:05;;;;;;;4.80;2.25;;;;;;;;;;5084613;28;20204;-68
2023/05/31 04:37:32;;;;;;;2.90;2.00;;;;;;;;;;5084596;28;20200;-69
2023/05/31 04:39:59;;;;;;;3.95;2.28;;;;;;;;;;5084446;28;20535;-68
2023/05/31 04:42:25;;;;;;;4.35;2.30;;;;;;;;;;5084421;28;20531;-68
2023/05/31 04:44:57;;;;;;;3.55;2.13;;;;;;;;;;5084453;28;20369;-68
2023/05/31 04:47:24;;;;;;;2.78;2.22;;;;;;;;;;5084442;28;20197;-68
2023/05/31 04:49:50;;;;;;;2.35;1.90;;;;;;;;;;5084389;28;20242;-68
2023/05/31 04:52:18;;;;;;;2.22;2.03;;;;;;;;;;5083498;28;20207;-68
2023/05/31 04:54:44;;;;;;;2.10;1.90;;;;;;;;;;5084256;28;20200;-68
2023/05/31 04:57:10;;;;;;;3.17;2.10;;;;;;;;;;5084012;28;20542;-68
2023/05/31 04:59:36;;;;;;;2.55;2.05;;;;;;;;;;5084251;28;20239;-68
2023/05/31 05:02:03;;;;;;;1.77;1.63;;;;;;;;;;5084165;28;20200;-68
2023/05/31 05:04:29;;;;;;;4.50;1.90;;;;;;;;;;5084023;28;20407;-68
2023/05/31 05:06:55;;;;;;;2.08;1.80;;;;;;;;;;5084066;28;20204;-68
2023/05/31 05:09:23;;;;;;;2.20;2.10;;;;;;;;;;5083784;28;20197;-68
2023/05/31 05:11:49;;;;;;;4.63;2.08;;;;;;;;;;5083822;28;20422;-68
2023/05/31 05:14:16;;;;;;;2.97;1.77;;;;;;;;;;5083803;28;20214;-68
2023/05/31 05:16:42;;;;;;;3.40;1.67;;;;;;;;;;5084073;28;20200;-68
2023/05/31 05:19:08;;;;;;;2.83;1.65;;;;;;;;;;5083776;28;20204;-68
2023/05/31 05:21:34;;;;;;;2.38;2.00;;;;;;;;;;5083831;28;20657;-68
2023/05/31 05:24:01;;;;;;;4.53;1.70;;;;;;;;;;5083501;28;20200;-68
2023/05/31 05:26:28;;;;;;;3.15;1.73;;;;;;;;;;5083560;28;20512;-68
2023/05/31 05:28:55;;;;;;;3.72;1.70;;;;;;;;;;5083651;28;20236;-68
2023/05/31 05:31:21;;;;;;;3.00;1.92;;;;;;;;;;5083604;28;20211;-68
2023/05/31 05:33:47;;;;;;;2.35;1.95;;;;;;;;;;5083549;28;20200;-68
2023/05/31 05:36:13;;;;;;;2.78;1.70;;;;;;;;;;5083364;28;20269;-68
2023/05/31 05:38:40;;;;;;;2.00;1.88;;;;;;;;;;5083510;28;20201;-68
2023/05/31 05:41:10;;;;;;;2.25;1.75;;;;;;;;;;5083114;28;20224;-68
2023/05/31 05:43:38;;;;;;;4.40;1.50;;;;;;;;;;5083444;28;20200;-68
2023/05/31 05:46:05;;;;;;;5.30;1.95;;;;;;;;;;5083236;28;20207;-68
2023/05/31 05:48:31;;;;;;;1.63;1.60;;;;;;;;;;5083336;28;20200;-68
2023/05/31 05:50:58;;;;;;;2.22;1.70;;;;;;;;;;5083518;28;20207;-68
2023/05/31 05:53:24;;;;;;;2.90;1.98;;;;;;;;;;5082996;28;20203;-68
2023/05/31 05:55:51;;;;;;;4.07;2.22;;;;;;;;;;5083123;28;20523;-68
2023/05/31 05:58:18;;;;;;;2.83;1.67;;;;;;;;;;5083034;28;20210;-68
2023/05/31 06:00:46;;;;;;;5.78;2.13;;;;;;;;;;5082957;28;20226;-68
2023/05/31 06:03:12;;;;;;;2.88;1.88;;;;;;;;;;5082854;28;20401;-68
2023/05/31 06:05:38;;;;;;;1.80;1.70;;;;;;;;;;5082546;28;20330;-68
2023/05/31 06:08:05;;;;;;;2.70;1.60;;;;;;;;;;5082532;28;20617;-68
2023/05/31 06:10:31;;;;;;;3.95;1.85;;;;;;;;;;5083144;28;20197;-68
2023/05/31 06:12:58;;;;;;;3.55;1.88;;;;;;;;;;5082895;28;20200;-68
2023/05/31 06:15:24;;;;;;;1.70;1.60;;;;;;;;;;5082473;28;20211;-68
2023/05/31 06:17:52;;;;;;;1.70;1.60;;;;;;;;;;5082556;28;20200;-68
2023/05/31 06:20:19;;;;;;;4.20;2.03;;;;;;;;;;5082421;28;20216;-68
2023/05/31 06:22:45;;;;;;;3.17;2.30;;;;;;;;;;5082522;28;20212;-68
2023/05/31 06:25:12;;;;;;;5.45;4.13;;;;;;;;;;5082350;28;20392;-68
2023/05/31 06:27:39;;;;;;;2.10;1.45;;;;;;;;;;5082569;28;20547;-68
2023/05/31 06:30:06;;;;;;;3.05;2.17;;;;;;;;;;5082656;28;20203;-68
2023/05/31 06:32:32;;;;;;;2.30;2.10;;;;;;;;;;5082779;28;20216;-60
2023/05/31 06:34:59;;;;;;;2.88;2.05;;;;;;;;;;5083438;28;20530;-58
2023/05/31 06:37:27;;;;;;;3.42;2.22;;;;;;;;;;5072876;28;20563;-59
2023/05/31 06:39:53;;;;;;;3.10;2.00;;;;;;;;;;5073346;28;20232;-61
2023/05/31 06:42:21;;;;;;;4.60;2.03;;;;;;;;;;5075064;28;20402;-61
2023/05/31 06:44:47;;;;;;;2.60;1.85;;;;;;;;;;5074879;28;20209;-60
2023/05/31 06:47:13;;;;;;;4.43;1.95;;;;;;;;;;5074550;28;20243;-60
2023/05/31 06:49:41;;;;;;;2.42;2.00;;;;;;;;;;5074695;28;20504;-61
2023/05/31 06:52:09;;;;;;;3.25;1.80;;;;;;;;;;5072960;28;20213;-60
2023/05/31 06:54:36;;;;;;;4.93;1.95;;;;;;;;;;5075577;28;20516;-60
2023/05/31 06:57:02;;;;;;;4.47;2.00;;;;;;;;;;5073387;28;20227;-61
2023/05/31 06:59:28;;;;;;;3.42;1.90;;;;;;;;;;5075822;28;20212;-60
2023/05/31 07:01:54;;;;;;;2.28;2.08;;;;;;;;;;5073794;28;20536;-60
2023/05/31 07:04:21;;;;;;;5.63;2.10;;;;;;;;;;5074746;28;20224;-60
2023/05/31 07:06:47;;;;;;;3.63;2.20;;;;;;;;;;5076116;28;20217;-60
2023/05/31 07:09:15;;;;;;;1.98;1.58;;;;;;;;;;5075490;28;20208;-59
2023/05/31 07:11:41;;;;;;;3.53;2.20;;;;;;;;;;5075749;28;20227;-60
2023/05/31 07:14:08;;;;;;;2.00;1.90;;;;;;;;;;5076334;28;20222;-60
2023/05/31 07:16:34;;;;;;;3.42;2.25;;;;;;;;;;5075476;28;20208;-60
2023/05/31 07:19:00;;;;;;;7.38;2.00;;;;;;;;;;5075167;28;20215;-60
2023/05/31 07:21:26;;;;;;;6.30;1.90;;;;;;;;;;5075073;28;20224;-61
2023/05/31 07:23:53;;;;;;;4.90;1.90;;;;;;;;;;5074785;28;20216;-61
2023/05/31 07:26:20;;;;;;;6.22;2.00;;;;;;;;;;5074757;28;20236;-61
2023/05/31 07:28:47;;;;;;;4.50;1.88;;;;;;;;;;5074928;28;20231;-59
2023/05/31 07:31:15;;;;;;;4.30;2.03;;;;;;;;;;5072345;28;20496;-60
2023/05/31 07:33:41;;;;;;;3.28;2.00;;;;;;;;;;5064742;28;20582;-59
2023/05/31 07:36:08;;;;;;;5.40;2.00;;;;;;;;;;5075440;28;20250;-60
2023/05/31 07:38:34;;;;;;;2.83;1.77;;;;;;;;;;5066658;28;20555;-59
2023/05/31 07:41:00;;;;;;;7.20;1.75;;;;;;;;;;5075037;28;20544;-58
2023/05/31 07:43:29;;;;;;;5.65;1.77;;;;;;;;;;5075338;28;20208;-59
2023/05/31 07:45:56;;;;;;;4.45;2.25;;;;;;;;;;5074975;28;20271;-59
2023/05/31 07:48:23;;;;;;;2.50;2.28;;;;;;;;;;5075470;28;20275;-59
2023/05/31 07:50:49;;;;;;;3.47;1.60;;;;;;;;;;5075621;28;20817;-59
2023/05/31 07:53:16;;;;;;;6.90;2.17;;;;;;;;;;5075205;28;20432;-59
2023/05/31 07:55:42;;;;;;;5.57;2.08;;;;;;;;;;5073998;28;20212;-59
2023/05/31 07:58:10;;;;;;;2.58;2.03;;;;;;;;;;5074722;28;20208;-59
2023/05/31 08:00:38;;;;;;;2.90;1.95;;;;;;;;;;5074675;28;20244;-59
2023/05/31 08:03:05;;;;;;;6.35;2.28;;;;;;;;;;5074163;28;20208;-60
2023/05/31 08:05:31;;;;;;;4.88;2.00;;;;;;;;;;5074198;28;20216;-59
2023/05/31 08:07:57;;;;;;;5.78;2.10;;;;;;;;;;5074926;28;20292;-59
2023/05/31 08:10:24;;;;;;;3.50;2.08;;;;;;;;;;5074723;28;20297;-59
2023/05/31 08:12:50;;;;;;;6.47;2.40;;;;;;;;;;5075299;28;20586;-60
2023/05/31 08:15:16;;;;;;;4.68;1.92;;;;;;;;;;5074748;28;20501;-59
2023/05/31 08:17:44;;;;;;;6.32;2.13;;;;;;;;;;5075007;28;20201;-60
2023/05/31 08:20:11;;;;;;;3.05;2.20;;;;;;;;;;5074533;28;20208;-59
2023/05/31 08:22:38;;;;;;;2.05;1.90;;;;;;;;;;5066367;28;20470;-59
2023/05/31 08:25:05;;;;;;;5.18;2.28;;;;;;;;;;5073698;28;21046;-60
2023/05/31 08:27:32;;;;;;;7.72;2.45;;;;;;;;;;5074655;28;20367;-60
2023/05/31 08:29:58;;;;;;;5.70;2.38;;;;;;;;;;5080128;28;20207;-59
2023/05/31 08:32:24;;;;;;;5.57;2.13;;;;;;;;;;5078025;28;20208;-59
2023/05/31 08:34:52;;;;;;;4.45;1.95;;;;;;;;;;5079947;28;20208;-59
2023/05/31 08:37:20;;;;;;;3.30;2.15;;;;;;;;;;5079257;28;20216;-59
2023/05/31 08:39:46;;;;;;;4.75;1.83;;;;;;;;;;5079200;28;20272;-59
2023/05/31 08:42:15;;;;;;;8.60;2.30;;;;;;;;;;5079482;28;20314;-59
2023/05/31 08:44:41;;;;;;;4.45;2.42;;;;;;;;;;5078393;28;20590;-59
2023/05/31 08:47:12;;;;;;;5.63;2.35;;;;;;;;;;5079335;28;20215;-59
2023/05/31 08:49:39;;;;;;;2.97;1.95;;;;;;;;;;5078323;28;20256;-59
2023/05/31 08:52:07;;;;;;;3.22;2.20;;;;;;;;;;5078857;28;20250;-59
2023/05/31 08:54:35;;;;;;;3.05;1.83;;;;;;;;;;5077251;28;20208;-60
2023/05/31 08:57:02;;;;;;;3.83;1.95;;;;;;;;;;5077993;28;20577;-60
2023/05/31 08:59:29;;;;;;;2.85;1.83;;;;;;;;;;5078989;28;20512;-59
2023/05/31 09:01:55;;;;;;;2.60;1.80;;;;;;;;;;5078778;28;20234;-59
2023/05/31 09:04:23;;;;;;;2.67;2.00;;;;;;;;;;5079650;28;20207;-58
2023/05/31 09:06:50;;;;;;;3.75;2.10;;;;;;;;;;5078647;28;20215;-59
2023/05/31 09:09:18;;;;;;;2.83;2.00;;;;;;;;;;5076677;28;20235;-60
2023/05/31 09:11:45;;;;;;;5.07;2.10;;;;;;;;;;5076799;28;20242;-59
2023/05/31 09:14:12;;;;;;;4.50;2.10;;;;;;;;;;5077848;28;20214;-59
2023/05/31 09:16:38;;;;;;;6.68;2.13;;;;;;;;;;5077532;28;20211;-60
2023/05/31 09:19:05;;;;;;;2.45;2.25;;;;;;;;;;5077236;28;20212;-59
2023/05/31 09:21:37;;;;;;;3.83;2.00;;;;;;;;;;5078572;28;20259;-59
2023/05/31 09:24:04;;;;;;;5.50;2.15;;;;;;;;;;5077505;28;20208;-59
2023/05/31 09:26:32;;;;;;;8.35;2.42;;;;;;;;;;5077311;28;20506;-58
2023/05/31 09:28:59;;;;;;;2.28;2.05;;;;;;;;;;5077375;28;20310;-60
2023/05/31 09:31:27;;;;;;;5.65;2.35;;;;;;;;;;5076254;28;20208;-59
2023/05/31 09:33:54;;;;;;;6.88;2.30;;;;;;;;;;5076919;28;20467;-59
2023/05/31 09:36:24;;;;;;;2.75;1.90;;;;;;;;;;5076822;28;20219;-58
2023/05/31 09:38:50;;;;;;;5.00;2.28;;;;;;;;;;5076543;28;20358;-58
2023/05/31 09:41:18;;;;;;;7.45;2.60;;;;;;;;;;5078527;28;20226;-59
2023/05/31 09:43:47;;;;;;;4.20;2.50;;;;;;;;;;5077524;28;20267;-59
2023/05/31 09:46:14;;;;;;;3.50;2.20;;;;;;;;;;5076998;28;20254;-59
2023/05/31 09:48:40;;;;;;;2.95;2.17;;;;;;;;;;5076527;28;20208;-59
2023/05/31 09:51:07;;;;;;;6.28;1.90;;;;;;;;;;5076141;28;20434;-59
2023/05/31 09:53:36;;;;;;;7.88;2.20;;;;;;;;;;5076571;28;20279;-59
2023/05/31 09:56:04;;;;;;;5.28;2.13;;;;;;;;;;5076622;28;20208;-59
2023/05/31 09:58:31;;;;;;;5.43;2.28;;;;;;;;;;5076899;28;20218;-59
2023/05/31 10:01:00;;;;;;;6.03;2.33;;;;;;;;;;5076169;28;20278;-60
2023/05/31 10:03:27;;;;;;;5.43;1.92;;;;;;;;;;5075771;28;20216;-60
2023/05/31 10:05:53;;;;;;;4.32;2.00;;;;;;;;;;5076817;28;20223;-60
2023/05/31 10:08:19;;;;;;;4.35;2.13;;;;;;;;;;5076832;28;20215;-60
2023/05/31 10:10:46;;;;;;;4.18;1.98;;;;;;;;;;5077645;28;20204;-60
2023/05/31 10:13:14;;;;;;;7.68;2.25;;;;;;;;;;5078316;28;20215;-60
2023/05/31 10:15:41;;;;;;;8.98;2.80;;;;;;;;;;5076943;28;20231;-61
2023/05/31 10:18:11;;;;;;;6.22;2.38;;;;;;;;;;5076086;28;20211;-60
2023/05/31 10:20:39;;;;;;;5.28;2.05;;;;;;;;;;5075671;28;20211;-62
2023/05/31 10:23:06;;;;;;;8.68;2.00;;;;;;;;;;5076474;28;20543;-60
2023/05/31 10:25:36;;;;;;;4.97;2.25;;;;;;;;;;5076100;28;20527;-60
2023/05/31 10:28:07;;;;;;;2.47;2.28;;;;;;;;;;5075446;28;20600;-59
2023/05/31 10:30:34;;;;;;;2.33;1.63;;;;;;;;;;5075388;28;20212;-60
2023/05/31 10:33:03;;;;;;;4.57;2.13;;;;;;;;;;5075498;28;20391;-60
2023/05/31 10:35:30;;;;;;;5.22;2.15;;;;;;;;;;5076393;28;20230;-60
2023/05/31 10:37:57;;;;;;;6.80;2.08;;;;;;;;;;5076281;28;20403;-60
2023/05/31 10:40:25;;;;;;;10.10;2.20;;;;;;;;;;5075436;28;20212;-60
2023/05/31 10:42:56;;;;;;;5.03;2.08;;;;;;;;;;5075130;28;20220;-60
2023/05/31 10:45:24;;;;;;;3.30;1.90;;;;;;;;;;5075819;28;20211;-60
2023/05/31 10:47:52;;;;;;;4.03;2.13;;;;;;;;;;5075423;28;20473;-60
2023/05/31 10:50:18;;;;;;;4.63;2.03;;;;;;;;;;5075343;28;20275;-62
2023/05/31 10:52:48;;;;;;;9.00;2.20;;;;;;;;;;5075030;28;20223;-61
2023/05/31 10:55:18;;;;;;;4.57;2.10;;;;;;;;;;5074483;28;20200;-60
2023/05/31 10:57:45;;;;;;;4.50;2.08;;;;;;;;;;5069207;28;20208;-61
2023/05/31 11:00:12;;;;;;;3.65;2.33;;;;;;;;;;5075076;28;20457;-60
2023/05/31 11:02:39;;;;;;;4.32;2.10;;;;;;;;;;5074878;28;20223;-60
2023/05/31 11:05:18;;;;;;;3.70;1.98;;;;;;;;;;5075531;28;20357;-60
2023/05/31 11:07:45;;;;;;;4.90;2.10;;;;;;;;;;5075968;28;20215;-60
2023/05/31 11:10:24;;;;;;;1.73;1.67;;;;;;;;;;5076163;28;20302;-60
2023/05/31 11:12:50;;;;;;;3.15;2.08;;;;;;;;;;5076245;28;20204;-60
2023/05/31 11:15:17;;;;;;;3.72;1.80;;;;;;;;;;5076110;28;20220;-60
2023/05/31 11:17:51;;;;;;;3.83;2.03;;;;;;;;;;5076614;28;20216;-60
2023/05/31 11:20:17;;;;;;;6.25;2.10;;;;;;;;;;5075752;28;20207;-60
2023/05/31 11:22:43;;;;;;;2.15;1.95;;;;;;;;;;5076030;28;20219;-59
2023/05/31 11:25:18;;;;;;;3.20;1.95;;;;;;;;;;5076155;28;20207;-60
2023/05/31 11:27:49;;;;;;;4.47;1.75;;;;;;;;;;5073558;28;20245;-60
2023/05/31 11:30:15;;;;;;;4.05;1.75;;;;;;;;;;5075493;28;20208;-60
2023/05/31 11:33:00;;;;;;;9.07;2.05;;;;;;;;;;5074379;28;20238;-60
2023/05/31 11:35:26;;;;;;;2.72;2.22;;;;;;;;;;5074024;28;20212;-60
2023/05/31 11:38:00;;;;;;;4.97;2.53;;;;;;;;;;5067580;28;20208;-59
2023/05/31 11:40:27;;;;;;;4.22;1.90;;;;;;;;;;5075650;28;20206;-60
2023/05/31 11:42:55;;;;;;;4.15;2.15;;;;;;;;;;5075630;28;20551;-60
2023/05/31 11:45:23;;;;;;;5.40;2.03;;;;;;;;;;5075301;28;20243;-60
2023/05/31 11:47:54;;;;;;;4.53;2.22;;;;;;;;;;5074117;28;20559;-60
2023/05/31 11:50:20;;;;;;;1.80;1.70;;;;;;;;;;5071861;28;20215;-62
2023/05/31 11:52:46;;;;;;;6.18;1.90;;;;;;;;;;5075188;28;20512;-61
2023/05/31 11:55:16;;;;;;;13.32;9.65;;;;;;;;;;5075268;28;20208;-60
2023/05/31 11:57:44;;;;;;;4.50;1.90;;;;;;;;;;5076050;28;20514;-62
2023/05/31 12:00:12;;;;;;;2.40;2.20;;;;;;;;;;5076664;28;20206;-59
2023/05/31 12:02:39;;;;;;;2.92;2.13;;;;;;;;;;5078466;28;20245;-59
2023/05/31 12:05:06;;;;;;;4.97;2.20;;;;;;;;;;5080393;28;20500;-59
2023/05/31 12:07:32;;;;;;;4.30;1.48;;;;;;;;;;5080612;28;20216;-60
2023/05/31 12:09:59;;;;;;;4.45;2.17;;;;;;;;;;5080107;28;20478;-59
2023/05/31 12:12:25;;;;;;;3.22;1.85;;;;;;;;;;5080614;28;20211;-59
2023/05/31 12:14:52;;;;;;;5.50;1.88;;;;;;;;;;5079360;28;20538;-59
2023/05/31 12:17:19;;;;;;;4.72;1.65;;;;;;;;;;5079487;28;20208;-59
2023/05/31 12:19:48;;;;;;;4.95;2.08;;;;;;;;;;5080191;28;20215;-59
2023/05/31 12:22:14;;;;;;;5.35;1.70;;;;;;;;;;5079628;28;20427;-59
2023/05/31 12:24:48;;;;;;;2.00;1.90;;;;;;;;;;5078378;28;20289;-59
2023/05/31 12:27:15;;;;;;;5.65;1.90;;;;;;;;;;5078742;28;20295;-59
2023/05/31 12:29:42;;;;;;;6.38;2.05;;;;;;;;;;5078525;28;20212;-59
2023/05/31 12:32:08;;;;;;;5.10;2.13;;;;;;;;;;5077477;28;20527;-61
2023/05/31 12:34:37;;;;;;;7.05;1.60;;;;;;;;;;5076079;28;20469;-59
2023/05/31 12:37:07;;;;;;;2.33;1.75;;;;;;;;;;5072397;28;20232;-59
2023/05/31 12:39:34;;;;;;;2.78;2.00;;;;;;;;;;5077987;28;20212;-60
2023/05/31 12:42:01;;;;;;;2.95;1.70;;;;;;;;;;5078551;28;20539;-59
2023/05/31 12:44:28;;;;;;;5.25;1.80;;;;;;;;;;5078025;28;20399;-60
2023/05/31 12:46:59;;;;;;;3.28;1.80;;;;;;;;;;5079632;28;20215;-60
2023/05/31 12:49:26;;;;;;;4.43;1.88;;;;;;;;;;5074736;28;20215;-60
2023/05/31 12:51:58;;;;;;;5.30;2.17;;;;;;;;;;5072053;28;20204;-60
2023/05/31 12:54:25;;;;;;;5.35;2.05;;;;;;;;;;5073553;28;20212;-59
2023/05/31 12:56:52;;;;;;;5.18;1.70;;;;;;;;;;5078017;28;20207;-62
2023/05/31 12:59:18;;;;;;;2.97;1.63;;;;;;;;;;5076932;28;20515;-61
2023/05/31 13:01:44;;;;;;;4.68;1.90;;;;;;;;;;5077798;28;20453;-59
2023/05/31 13:04:11;;;;;;;5.15;1.60;;;;;;;;;;5077731;28;20204;-59
2023/05/31 13:06:38;;;;;;;2.55;1.80;;;;;;;;;;5077454;28;20216;-59
2023/05/31 13:09:06;;;;;;;6.95;2.10;;;;;;;;;;5077388;28;20266;-59
2023/05/31 13:11:34;;;;;;;1.60;1.50;;;;;;;;;;5077109;28;20542;-60
2023/05/31 13:14:00;;;;;;;4.45;1.88;;;;;;;;;;5076491;28;20212;-60
2023/05/31 13:16:26;;;;;;;2.85;1.75;;;;;;;;;;5075702;28;20220;-59
2023/05/31 13:18:52;;;;;;;2.38;1.75;;;;;;;;;;5076794;28;20204;-60
2023/05/31 13:21:19;;;;;;;1.70;1.60;;;;;;;;;;5078609;28;20208;-59
2023/05/31 13:23:45;;;;;;;6.82;1.55;;;;;;;;;;5077427;28;20226;-61
2023/05/31 13:26:12;;;;;;;2.17;1.63;;;;;;;;;;5077002;28;20216;-60
2023/05/31 13:28:39;;;;;;;5.68;1.70;;;;;;;;;;5077199;28;20228;-60
2023/05/31 13:31:05;;;;;;;3.40;2.00;;;;;;;;;;5076889;28;20435;-61
2023/05/31 13:33:32;;;;;;;3.08;1.80;;;;;;;;;;5078882;28;20208;-59
2023/05/31 13:35:58;;;;;;;2.60;1.58;;;;;;;;;;5075876;28;20254;-60
2023/05/31 13:38:25;;;;;;;2.85;1.70;;;;;;;;;;5076433;28;20215;-60
2023/05/31 13:40:51;;;;;;;1.88;1.77;;;;;;;;;;5076095;28;20235;-60
2023/05/31 13:43:19;;;;;;;2.72;1.48;;;;;;;;;;5077508;28;20447;-60
2023/05/31 13:45:45;;;;;;;1.90;1.75;;;;;;;;;;5076724;28;20211;-60
2023/05/31 13:48:13;;;;;;;5.88;1.80;;;;;;;;;;5078025;28;20215;-61
2023/05/31 13:50:39;;;;;;;5.00;1.67;;;;;;;;;;5076374;28;20199;-60
2023/05/31 13:53:05;;;;;;;3.13;1.60;;;;;;;;;;5076372;28;20208;-60
2023/05/31 13:55:32;;;;;;;3.08;1.35;;;;;;;;;;5076361;28;20528;-61
2023/05/31 13:57:58;;;;;;;5.68;1.58;;;;;;;;;;5076265;28;20218;-60
2023/05/31 14:00:26;;;;;;;3.70;1.60;;;;;;;;;;5075428;28;20396;-60
2023/05/31 14:02:54;;;;;;;4.80;1.58;;;;;;;;;;5075887;28;20487;-60
2023/05/31 14:05:20;;;;;;;1.92;1.42;;;;;;;;;;5076334;28;20265;-60
2023/05/31 14:07:46;;;;;;;5.78;1.63;;;;;;;;;;5075273;28;20223;-59
2023/05/31 14:10:13;;;;;;;3.90;1.45;;;;;;;;;;5076013;28;20455;-59
2023/05/31 14:12:39;;;;;;;5.47;1.80;;;;;;;;;;5076128;28;20212;-60
2023/05/31 14:15:06;;;;;;;3.03;1.67;;;;;;;;;;5077188;28;20411;-60
2023/05/31 14:17:33;;;;;;;1.77;1.50;;;;;;;;;;5076482;28;20234;-60
2023/05/31 14:20:00;;;;;;;2.33;1.85;;;;;;;;;;5076924;28;20208;-59
2023/05/31 14:22:26;;;;;;;2.38;1.67;;;;;;;;;;5076297;28;20429;-60
2023/05/31 14:24:52;;;;;;;2.08;1.48;;;;;;;;;;5075719;28;20388;-59
2023/05/31 14:27:19;;;;;;;4.55;1.90;;;;;;;;;;5075773;28;20561;-60
2023/05/31 14:29:45;;;;;;;3.53;1.73;;;;;;;;;;5075392;28;20406;-59
2023/05/31 14:32:14;;;;;;;6.65;1.67;;;;;;;;;;5074905;28;20275;-59
2023/05/31 14:34:42;;;;;;;3.80;1.80;;;;;;;;;;5075549;28;20235;-59
2023/05/31 14:37:08;;;;;;;3.55;1.70;;;;;;;;;;5076168;28;20215;-60
2023/05/31 14:39:34;;;;;;;5.25;1.92;;;;;;;;;;5076093;28;20211;-60
2023/05/31 14:42:00;;;;;;;2.45;1.65;;;;;;;;;;5074774;28;20211;-60